Terminal Aerodrome Forecast
Issued by NWS Shreveport, LA

Home | Current Version | Previous Version | Text Only | Print | Product List | Glossary On
Versions: 1 2 3 4 5 6 7 8 9 10 11 12 13 14
000
FTUS44 KSHV 271120
TAFLFK
TAF
KLFK 271120Z 2712/2812 17009KT P6SM OVC015
     FM271700 19012G18KT P6SM BKN035
     FM280500 18012KT P6SM BKN015=

USA.gov is the U.S. government's official web portal to all federal, state and local government web resources and services.